Time;durP1;ratioP1;P1;durP2;ratioP2;P2;SDS_P1;SDS_P2;PMS_P1;PMS_P2;Temp;Humidity;BMP_temperature;BMP_pressure;BME280_temperature;BME280_humidity;BME280_pressure;Samples;Min_cycle;Max_cycle;Signal;HPM_P1;HPM_P2
2022/05/17 00:00:25;;;;;;;9.20;3.53;;;;;;;12.95;100.00;102007.16;5275735;28;20074;-69
2022/05/17 00:02:57;;;;;;;10.13;3.28;;;;;;;12.97;100.00;102015.09;5278055;28;20019;-68
2022/05/17 00:05:28;;;;;;;11.15;3.15;;;;;;;12.89;100.00;102012.31;5287807;28;20019;-69
2022/05/17 00:07:59;;;;;;;12.55;3.83;;;;;;;12.79;100.00;102011.53;5277712;28;20020;-68
2022/05/17 00:10:30;;;;;;;9.77;3.92;;;;;;;12.71;100.00;102009.63;5268835;28;20587;-69
2022/05/17 00:13:00;;;;;;;10.15;4.10;;;;;;;12.62;100.00;102011.34;5280575;28;20400;-69
2022/05/17 00:15:32;;;;;;;9.48;3.75;;;;;;;12.53;100.00;102014.94;5279389;28;20028;-69
2022/05/17 00:18:03;;;;;;;8.05;3.53;;;;;;;12.43;100.00;102011.47;5269047;28;20016;-69
2022/05/17 00:20:33;;;;;;;7.90;3.42;;;;;;;12.40;100.00;102011.78;5282402;28;20024;-69
2022/05/17 00:23:04;;;;;;;8.68;3.75;;;;;;;12.40;100.00;101998.34;5282613;28;20487;-69
2022/05/17 00:25:36;;;;;;;6.97;3.75;;;;;;;12.40;100.00;102003.72;5276773;28;20034;-69
2022/05/17 00:28:06;;;;;;;9.80;3.30;;;;;;;12.44;100.00;101997.00;5274066;27;20024;-69
2022/05/17 00:30:37;;;;;;;8.57;3.40;;;;;;;12.43;100.00;101996.16;5268955;28;20492;-69
2022/05/17 00:33:07;;;;;;;9.27;3.63;;;;;;;12.45;100.00;101998.72;5282201;28;20027;-68
2022/05/17 00:35:38;;;;;;;8.20;4.03;;;;;;;12.46;100.00;101995.03;5268585;28;20055;-69
2022/05/17 00:38:09;;;;;;;7.90;4.13;;;;;;;12.43;100.00;101995.31;5268514;28;20024;-69
2022/05/17 00:40:40;;;;;;;8.23;3.88;;;;;;;12.42;100.00;101991.78;5281046;28;20030;-69
2022/05/17 00:43:20;;;;;;;9.75;3.80;;;;;;;12.40;100.00;101982.19;5276038;28;20024;-69
2022/05/17 00:45:51;;;;;;;6.95;3.70;;;;;;;12.43;100.00;101981.88;5275754;28;20404;-69
2022/05/17 00:48:22;;;;;;;14.93;4.22;;;;;;;12.46;100.00;101978.03;5281077;27;20021;-69
2022/05/17 00:50:54;;;;;;;11.05;3.92;;;;;;;12.47;100.00;101982.41;5282029;28;20024;-68
2022/05/17 00:53:32;;;;;;;9.88;4.07;;;;;;;12.46;100.00;101972.66;5268675;28;20386;-68
2022/05/17 00:56:12;;;;;;;11.65;4.85;;;;;;;12.48;100.00;101976.03;5287264;28;20048;-68
2022/05/17 00:58:47;;;;;;;17.58;3.97;;;;;;;12.50;100.00;101974.91;5275491;28;20022;-69
2022/05/17 01:01:23;;;;;;;11.65;4.82;;;;;;;12.56;100.00;101973.44;5289560;28;20019;-69
2022/05/17 01:03:57;;;;;;;13.77;3.75;;;;;;;12.58;100.00;101972.28;5275787;28;20027;-68
2022/05/17 01:06:32;;;;;;;10.38;3.85;;;;;;;12.59;100.00;101971.28;5289306;28;20090;-69
2022/05/17 01:09:03;;;;;;;10.27;3.50;;;;;;;12.66;100.00;101974.22;5284441;28;20495;-69
2022/05/17 01:11:33;;;;;;;8.88;3.50;;;;;;;12.72;100.00;101968.22;5268507;28;20024;-69
2022/05/17 01:17:08;;;;;;;9.82;4.05;;;;;;;12.95;100.00;101972.16;5276007;28;20104;-69
2022/05/17 01:19:56;;;;;;;8.35;3.72;;;;;;;13.01;100.00;101964.47;5275280;28;20062;-69
2022/05/17 01:22:27;;;;;;;13.63;3.55;;;;;;;13.04;100.00;101966.81;5289113;28;20456;-69
2022/05/17 01:24:57;;;;;;;11.00;3.67;;;;;;;13.07;100.00;101975.44;5275075;28;20040;-69
2022/05/17 01:27:31;;;;;;;9.75;3.22;;;;;;;13.14;100.00;101973.81;5288569;28;20027;-69
2022/05/17 01:30:04;;;;;;;10.15;3.75;;;;;;;13.20;100.00;101975.03;5271490;28;20036;-69
2022/05/17 01:32:34;;;;;;;11.73;3.88;;;;;;;13.21;100.00;101974.06;5268141;28;20028;-69
2022/05/17 01:35:05;;;;;;;10.93;3.88;;;;;;;13.21;100.00;101968.66;5281221;28;20046;-69
2022/05/17 01:37:35;;;;;;;10.68;4.50;;;;;;;13.21;100.00;101964.16;5267782;28;20431;-69
2022/05/17 01:40:07;;;;;;;11.60;4.40;;;;;;;13.21;100.00;101965.97;5267289;28;20058;-70
2022/05/17 01:42:38;;;;;;;15.63;4.00;;;;;;;13.20;100.00;101973.22;5281055;28;20028;-69
2022/05/17 01:45:09;;;;;;;12.25;5.05;;;;;;;13.19;100.00;101966.09;5277164;28;20024;-69
2022/05/17 01:47:40;;;;;;;9.85;4.35;;;;;;;13.19;100.00;101973.34;5285026;28;20051;-69
2022/05/17 01:50:17;;;;;;;12.88;3.90;;;;;;;13.16;100.00;101958.34;5279214;28;20019;-70
2022/05/17 01:52:48;;;;;;;15.30;4.75;;;;;;;13.16;100.00;101955.66;5274783;28;20396;-69
2022/05/17 01:55:19;;;;;;;10.93;3.90;;;;;;;13.12;100.00;101950.72;5275376;28;20031;-69
2022/05/17 01:57:50;;;;;;;9.68;4.15;;;;;;;13.07;100.00;101948.50;5287938;28;20034;-69
2022/05/17 02:00:23;;;;;;;11.00;4.70;;;;;;;13.01;100.00;101946.44;5274674;28;20496;-69
2022/05/17 02:02:53;;;;;;;15.38;4.35;;;;;;;12.96;100.00;101937.97;5278522;28;20111;-69
2022/05/17 02:05:25;;;;;;;12.00;4.35;;;;;;;12.87;100.00;101930.81;5279473;28;20030;-68
2022/05/17 02:07:56;;;;;;;10.65;4.45;;;;;;;12.81;100.00;101931.44;5285123;28;20134;-70
2022/05/17 02:10:27;;;;;;;13.80;4.28;;;;;;;12.76;100.00;101933.75;5270140;28;20036;-70
2022/05/17 02:12:58;;;;;;;9.52;3.58;;;;;;;12.72;100.00;101940.44;5278532;28;20430;-69
2022/05/17 02:15:29;;;;;;;7.78;3.50;;;;;;;12.70;100.00;101930.69;5276237;27;20400;-69
2022/05/17 02:18:00;;;;;;;7.25;3.25;;;;;;;12.76;100.00;101944.53;5266832;28;20030;-69
2022/05/17 02:20:30;;;;;;;8.52;3.30;;;;;;;12.81;100.00;101944.91;5280887;28;20052;-69
2022/05/17 02:23:01;;;;;;;8.02;3.65;;;;;;;12.86;100.00;101948.00;5280273;28;20492;-70
2022/05/17 02:25:32;;;;;;;7.63;3.22;;;;;;;12.88;100.00;101951.38;5266695;28;20370;-69
2022/05/17 02:28:03;;;;;;;11.45;3.88;;;;;;;12.86;100.00;101948.84;5280087;28;20550;-68
2022/05/17 02:30:35;;;;;;;10.88;4.45;;;;;;;12.83;100.00;101954.53;5276224;28;20028;-68
2022/05/17 02:33:06;;;;;;;9.65;4.25;;;;;;;12.81;100.00;101955.69;5273857;27;20024;-68
2022/05/17 02:35:37;;;;;;;15.40;4.43;;;;;;;12.76;100.00;101955.31;5287618;28;20435;-69
2022/05/17 02:38:08;;;;;;;8.98;4.25;;;;;;;12.75;100.00;101967.03;5282204;28;20278;-68
2022/05/17 02:40:39;;;;;;;10.70;3.95;;;;;;;12.73;100.00;101960.97;5266611;28;20477;-68
2022/05/17 02:43:13;;;;;;;12.43;4.32;;;;;;;12.71;100.00;101955.75;5280434;28;20024;-69
2022/05/17 02:45:43;;;;;;;14.50;4.25;;;;;;;12.69;100.00;101961.28;5279768;28;20016;-69
2022/05/17 02:48:14;;;;;;;9.52;4.47;;;;;;;12.70;100.00;101972.88;5266448;28;20031;-69
2022/05/17 02:50:44;;;;;;;6.70;3.58;;;;;;;12.69;100.00;101973.91;5267826;28;20035;-68
2022/05/17 02:53:15;;;;;;;9.82;3.47;;;;;;;12.71;100.00;101969.22;5278186;28;20110;-68
2022/05/17 02:55:46;;;;;;;9.75;4.03;;;;;;;12.74;100.00;101971.59;5279679;28;20483;-68
2022/05/17 02:58:16;;;;;;;10.60;3.33;;;;;;;12.77;100.00;101975.84;5277028;28;20500;-68
2022/05/17 03:00:46;;;;;;;14.15;4.13;;;;;;;12.79;100.00;101968.44;5269315;28;20107;-68
2022/05/17 03:03:17;;;;;;;11.25;4.32;;;;;;;12.81;100.00;101969.16;5278165;28;20480;-68
2022/05/17 03:05:47;;;;;;;12.70;4.85;;;;;;;12.81;100.00;101964.63;5273553;28;20103;-68
2022/05/17 03:08:18;;;;;;;10.55;3.80;;;;;;;12.84;100.00;101971.53;5279505;28;20020;-68
2022/05/17 03:10:49;;;;;;;11.93;3.83;;;;;;;12.85;100.00;101974.09;5264942;28;20020;-69
2022/05/17 03:13:19;;;;;;;9.38;3.30;;;;;;;12.87;100.00;101979.31;5267191;28;20027;-69
2022/05/17 03:15:51;;;;;;;9.98;3.72;;;;;;;12.95;100.00;101979.34;5276882;28;20035;-69
2022/05/17 03:18:21;;;;;;;10.82;3.95;;;;;;;13.00;100.00;101981.59;5282829;28;20039;-69
2022/05/17 03:20:51;;;;;;;17.08;4.85;;;;;;;13.03;100.00;101989.38;5276826;28;20050;-69
2022/05/17 03:23:22;;;;;;;13.98;3.72;;;;;;;13.05;100.00;101999.00;5270083;28;20464;-69
2022/05/17 03:25:52;;;;;;;10.77;3.83;;;;;;;13.08;100.00;101998.69;5287326;28;20023;-69
2022/05/17 03:28:23;;;;;;;13.07;3.95;;;;;;;13.11;100.00;102000.25;5267836;28;20035;-70
2022/05/17 03:30:53;;;;;;;14.13;3.80;;;;;;;13.07;100.00;101998.84;5266086;28;20020;-69
2022/05/17 03:33:24;;;;;;;15.07;4.30;;;;;;;13.05;100.00;101984.66;5279670;28;20027;-69
2022/05/17 03:35:54;;;;;;;13.90;3.65;;;;;;;13.00;100.00;101982.44;5279476;28;20015;-69
2022/05/17 03:38:25;;;;;;;12.48;4.47;;;;;;;12.92;100.00;101985.91;5265769;28;20035;-68
2022/05/17 03:40:58;;;;;;;11.07;4.15;;;;;;;12.89;100.00;101980.81;5266165;28;20473;-68
2022/05/17 03:43:29;;;;;;;16.15;4.20;;;;;;;12.85;100.00;101975.91;5286990;28;20020;-69
2022/05/17 03:46:00;;;;;;;16.38;5.00;;;;;;;12.85;100.00;101973.22;5270658;28;20024;-69
2022/05/17 03:48:30;;;;;;;17.38;4.60;;;;;;;12.84;100.00;101976.91;5265864;28;20016;-69
2022/05/17 03:51:01;;;;;;;18.92;5.05;;;;;;;12.79;100.00;101973.81;5269029;28;20065;-69
2022/05/17 03:53:31;;;;;;;10.63;4.18;;;;;;;12.83;100.00;101975.22;5275744;28;20058;-69
2022/05/17 03:56:03;;;;;;;11.30;4.50;;;;;;;12.86;100.00;101975.75;5284001;28;20141;-69
2022/05/17 03:58:33;;;;;;;14.48;4.40;;;;;;;12.91;100.00;101986.94;5274134;28;20024;-70
2022/05/17 04:01:04;;;;;;;7.45;3.88;;;;;;;12.97;100.00;101988.16;5279050;28;20103;-68
2022/05/17 04:03:36;;;;;;;11.20;4.53;;;;;;;13.06;100.00;101978.31;5278919;28;20031;-69
2022/05/17 04:06:07;;;;;;;9.43;4.35;;;;;;;13.10;100.00;101987.75;5273577;28;20011;-69
2022/05/17 04:08:38;;;;;;;16.10;4.50;;;;;;;13.15;100.00;101986.31;5284749;28;20020;-69
2022/05/17 04:11:08;;;;;;;8.98;4.35;;;;;;;13.20;100.00;101984.00;5275006;28;20028;-68
2022/05/17 04:13:39;;;;;;;11.13;4.90;;;;;;;13.25;100.00;101990.78;5272678;28;20031;-69
2022/05/17 04:16:10;;;;;;;10.05;4.13;;;;;;;13.28;100.00;101983.22;5275367;28;20032;-68
2022/05/17 04:18:41;;;;;;;16.20;4.82;;;;;;;13.34;100.00;101987.13;5269682;28;20361;-68
2022/05/17 04:21:12;;;;;;;9.48;3.67;;;;;;;13.38;100.00;101992.06;5274619;28;20031;-68
2022/05/17 04:23:42;;;;;;;8.75;3.70;;;;;;;13.44;100.00;101991.44;5265617;28;20366;-67
2022/05/17 04:26:14;;;;;;;8.15;3.90;;;;;;;13.49;100.00;101990.97;5267437;28;20069;-68
2022/05/17 04:28:44;;;;;;;10.15;4.57;;;;;;;13.52;100.00;101993.34;5275529;28;20023;-69
2022/05/17 04:31:15;;;;;;;9.90;3.95;;;;;;;13.57;100.00;101988.34;5275614;28;20030;-69
2022/05/17 04:33:46;;;;;;;12.07;4.47;;;;;;;13.63;100.00;101992.25;5269115;28;20031;-69
2022/05/17 04:36:17;;;;;;;14.20;4.35;;;;;;;13.67;100.00;101991.78;5281876;28;20020;-69
2022/05/17 04:38:47;;;;;;;10.82;4.43;;;;;;;13.74;100.00;101987.41;5269314;28;20058;-69
2022/05/17 04:41:18;;;;;;;8.82;3.50;;;;;;;13.78;100.00;101987.13;5286208;28;20039;-69
2022/05/17 04:43:48;;;;;;;9.65;3.60;;;;;;;13.81;100.00;101981.41;5278587;28;20027;-69
2022/05/17 04:46:19;;;;;;;13.13;3.50;;;;;;;13.86;100.00;101989.88;5287723;28;20435;-69
2022/05/17 04:48:49;;;;;;;6.93;3.45;;;;;;;13.88;100.00;101987.84;5276976;28;20054;-69
2022/05/17 04:51:20;;;;;;;12.82;3.70;;;;;;;13.92;100.00;101987.38;5282348;28;20449;-70
2022/05/17 04:53:50;;;;;;;11.25;3.17;;;;;;;13.97;100.00;101986.88;5281996;28;20511;-69
2022/05/17 04:56:21;;;;;;;6.20;3.42;;;;;;;14.00;100.00;101986.53;5276638;28;20028;-69
2022/05/17 04:58:51;;;;;;;13.20;4.03;;;;;;;14.05;100.00;101984.22;5287628;28;20157;-69
2022/05/17 05:01:22;;;;;;;14.35;3.58;;;;;;;14.10;100.00;101991.81;5268672;28;20475;-68
2022/05/17 05:03:52;;;;;;;14.77;3.80;;;;;;;14.13;100.00;101995.06;5282148;28;20238;-69
2022/05/17 05:06:23;;;;;;;13.82;3.63;;;;;;;14.17;100.00;101995.59;5278713;28;20027;-69
2022/05/17 05:08:54;;;;;;;10.93;3.83;;;;;;;14.19;100.00;101999.78;5284715;28;20050;-69
2022/05/17 05:11:24;;;;;;;12.90;3.78;;;;;;;14.23;100.00;101998.47;5280657;28;20388;-69
2022/05/17 05:13:55;;;;;;;11.68;3.08;;;;;;;14.27;100.00;102006.25;5283351;28;20043;-70
2022/05/17 05:16:25;;;;;;;13.30;3.55;;;;;;;14.32;100.00;102003.91;5268032;28;20442;-69
2022/05/17 05:18:56;;;;;;;16.27;3.60;;;;;;;14.35;100.00;102003.56;5274892;28;20472;-69
2022/05/17 05:21:26;;;;;;;10.32;3.15;;;;;;;14.37;100.00;102004.28;5275243;28;20028;-69
2022/05/17 05:23:57;;;;;;;16.50;4.30;;;;;;;14.41;100.00;102003.78;5289129;28;20023;-69
2022/05/17 05:26:27;;;;;;;11.23;3.55;;;;;;;14.43;100.00;102007.16;5275233;28;20051;-69
2022/05/17 05:28:58;;;;;;;18.05;3.97;;;;;;;14.48;100.00;102006.69;5279414;28;20031;-68
2022/05/17 05:31:28;;;;;;;14.13;3.70;;;;;;;14.52;100.00;101999.13;5284499;28;20080;-68
2022/05/17 05:34:00;;;;;;;19.50;3.58;;;;;;;14.57;100.00;101997.63;5289049;28;20080;-69
2022/05/17 05:36:31;;;;;;;9.70;3.60;;;;;;;14.64;100.00;102000.50;5269735;28;20107;-69
2022/05/17 05:39:02;;;;;;;12.23;4.30;;;;;;;14.67;100.00;101998.31;5267266;28;20565;-70
2022/05/17 05:41:33;;;;;;;16.73;4.65;;;;;;;14.73;100.00;102004.91;5267287;28;20028;-69
2022/05/17 05:44:04;;;;;;;11.45;3.95;;;;;;;14.78;100.00;101991.75;5281866;28;20467;-70
2022/05/17 05:46:35;;;;;;;8.57;4.22;;;;;;;14.86;100.00;102001.72;5267435;28;20032;-71
2022/05/17 05:49:05;;;;;;;17.95;5.30;;;;;;;14.92;100.00;102010.03;5282670;28;20366;-70
2022/05/17 05:51:36;;;;;;;14.05;5.10;;;;;;;14.98;100.00;102003.09;5289135;28;20110;-70
2022/05/17 05:54:07;;;;;;;19.35;5.03;;;;;;;15.03;100.00;102016.97;5272257;28;20024;-71
2022/05/17 05:56:38;;;;;;;16.83;4.18;;;;;;;15.08;100.00;102009.19;5267466;28;20028;-70
2022/05/17 05:59:09;;;;;;;17.38;5.00;;;;;;;15.15;100.00;102014.75;5281000;28;20385;-70
2022/05/17 06:01:39;;;;;;;12.63;4.25;;;;;;;15.21;100.00;102014.06;5267321;28;20024;-70
2022/05/17 06:04:10;;;;;;;26.33;7.00;;;;;;;15.28;100.00;102012.41;5267085;28;20502;-70
2022/05/17 06:06:42;;;;;;;22.83;5.85;;;;;;;15.33;100.00;102012.75;5279822;28;20027;-69
2022/05/17 06:09:12;;;;;;;19.40;4.53;;;;;;;15.38;100.00;102010.38;5267955;28;20016;-68
2022/05/17 06:11:43;;;;;;;18.80;4.85;;;;;;;15.44;100.00;102008.84;5280513;28;20030;-68
2022/05/17 06:14:13;;;;;;;14.98;3.30;;;;;;;15.47;100.00;102009.38;5274855;28;20016;-67
2022/05/17 06:16:44;;;;;;;11.45;3.47;;;;;;;15.51;100.00;102026.06;5285856;28;20028;-67
2022/05/17 06:19:14;;;;;;;17.45;3.85;;;;;;;15.52;100.00;102014.28;5276238;28;20036;-67
2022/05/17 06:21:44;;;;;;;9.30;3.58;;;;;;;15.57;100.00;102030.81;5287783;28;20023;-67
2022/05/17 06:24:16;;;;;;;14.68;3.50;;;;;;;15.60;100.00;102025.06;5287685;28;20019;-67
2022/05/17 06:26:46;;;;;;;15.13;3.30;;;;;;;15.63;100.00;102024.75;5283840;28;20036;-67
2022/05/17 06:29:17;;;;;;;16.88;4.03;;;;;;;15.65;100.00;102030.84;5266802;28;20027;-68
2022/05/17 06:31:47;;;;;;;13.18;3.63;;;;;;;15.65;100.00;102024.59;5280160;28;20062;-67
2022/05/17 06:34:18;;;;;;;8.52;3.47;;;;;;;15.66;100.00;102035.25;5279883;28;20023;-68
2022/05/17 06:36:48;;;;;;;15.32;3.65;;;;;;;15.68;100.00;102032.38;5266844;28;20081;-67
2022/05/17 06:39:19;;;;;;;13.50;4.25;;;;;;;15.67;100.00;102022.56;5279669;28;20106;-67
2022/05/17 06:41:51;;;;;;;10.30;4.85;;;;;;;15.66;100.00;102019.03;5274936;28;20034;-67
2022/05/17 06:44:21;;;;;;;12.93;4.07;;;;;;;15.67;100.00;102036.09;5271081;28;20024;-68
2022/05/17 06:46:54;;;;;;;13.38;4.30;;;;;;;15.68;100.00;102043.19;5266494;28;20440;-67
2022/05/17 06:49:26;;;;;;;12.13;4.38;;;;;;;15.68;100.00;102041.31;5280038;28;20028;-67
2022/05/17 06:52:00;;;;;;;20.23;4.40;;;;;;;15.69;100.00;102037.59;5278246;28;20482;-68
2022/05/17 06:54:31;;;;;;;18.75;5.30;;;;;;;15.72;100.00;102052.66;5273028;28;20476;-68
2022/05/17 06:57:03;;;;;;;24.42;6.45;;;;;;;15.68;100.00;102049.44;5274043;28;20030;-69
2022/05/17 06:59:36;;;;;;;24.33;6.57;;;;;;;15.64;100.00;102060.78;5287487;28;20032;-71
2022/05/17 07:02:07;;;;;;;17.80;6.00;;;;;;;15.55;100.00;102071.53;5272788;28;20028;-70
2022/05/17 07:04:39;;;;;;;23.48;5.90;;;;;;;15.46;100.00;102066.31;5280981;28;20034;-70
2022/05/17 07:07:10;;;;;;;20.48;7.55;;;;;;;15.39;100.00;102066.16;5283160;27;20032;-70
2022/05/17 07:09:40;;;;;;;21.23;7.05;;;;;;;15.32;100.00;102067.00;5274563;28;20020;-70
2022/05/17 07:15:00;;;;;;;16.42;6.93;;;;;;;15.12;100.00;102036.72;5277563;28;20406;-70
2022/05/17 07:17:30;;;;;;;17.52;7.03;;;;;;;15.02;100.00;102020.69;5271609;28;20429;-69
2022/05/17 07:20:01;;;;;;;12.43;6.07;;;;;;;15.05;100.00;102019.47;5268509;28;20032;-70
2022/05/17 07:22:32;;;;;;;15.95;6.97;;;;;;;15.07;100.00;102026.44;5272795;28;20029;-70
2022/05/17 07:25:03;;;;;;;18.35;6.88;;;;;;;15.06;100.00;102026.56;5280397;27;20031;-70
2022/05/17 07:27:34;;;;;;;15.07;6.13;;;;;;;15.07;100.00;102037.22;5274414;28;20024;-70
2022/05/17 07:30:05;;;;;;;14.70;6.75;;;;;;;15.11;100.00;102032.31;5283846;28;20030;-70
2022/05/17 07:32:36;;;;;;;13.30;6.03;;;;;;;15.17;100.00;102034.38;5271755;28;20024;-70
2022/05/17 07:35:07;;;;;;;14.82;5.75;;;;;;;15.27;100.00;102051.28;5282430;28;20019;-70
2022/05/17 07:37:38;;;;;;;13.23;5.60;;;;;;;15.38;100.00;102053.66;5283903;28;20019;-70
2022/05/17 07:40:10;;;;;;;14.30;5.75;;;;;;;15.53;100.00;102057.34;5283905;28;20030;-70
2022/05/17 07:42:41;;;;;;;11.88;6.20;;;;;;;15.72;100.00;102056.22;5284047;28;20438;-70
2022/05/17 07:45:14;;;;;;;16.13;6.30;;;;;;;15.82;100.00;102061.44;5284000;28;20415;-70
2022/05/17 07:47:44;;;;;;;15.73;6.20;;;;;;;15.71;100.00;102049.13;5270655;28;20011;-70
2022/05/17 07:50:15;;;;;;;14.43;7.15;;;;;;;15.74;100.00;102054.16;5273684;28;20580;-70
2022/05/17 07:52:45;;;;;;;24.13;7.20;;;;;;;15.82;100.00;102066.00;5267179;28;20516;-70
2022/05/17 07:55:16;;;;;;;13.75;6.30;;;;;;;15.89;100.00;102067.00;5283674;28;20541;-70
2022/05/17 07:57:46;;;;;;;23.98;7.47;;;;;;;16.01;100.00;102071.03;5270520;28;20035;-70
2022/05/17 08:00:17;;;;;;;16.35;7.47;;;;;;;16.15;100.00;102070.31;5270940;28;20020;-70
2022/05/17 08:02:47;;;;;;;11.23;5.80;;;;;;;16.27;100.00;102068.94;5287535;28;20026;-70
2022/05/17 08:05:18;;;;;;;14.85;6.15;;;;;;;16.45;100.00;102057.03;5287607;28;20368;-70
2022/05/17 08:07:49;;;;;;;10.98;5.38;;;;;;;16.67;100.00;102056.25;5288267;28;20024;-70
2022/05/17 08:10:21;;;;;;;12.85;6.38;;;;;;;16.92;100.00;102064.25;5287669;28;20024;-69
2022/05/17 08:12:52;;;;;;;16.33;5.32;;;;;;;17.17;100.00;102063.09;5288137;28;20035;-70
2022/05/17 08:15:23;;;;;;;11.90;5.22;;;;;;;17.34;100.00;102053.81;5284360;28;20032;-70
2022/05/17 08:17:55;;;;;;;14.95;5.60;;;;;;;17.58;100.00;102054.66;5277173;28;20485;-70
2022/05/17 08:20:25;;;;;;;12.63;4.55;;;;;;;17.72;100.00;102052.97;5287490;28;20038;-70
2022/05/17 08:22:56;;;;;;;20.17;6.13;;;;;;;18.11;100.00;102056.34;5286544;28;20019;-70
2022/05/17 08:28:16;;;;;;;11.70;5.20;;;;;;;18.82;100.00;102051.22;5287294;28;20032;-70
2022/05/17 08:30:47;;;;;;;15.55;5.15;;;;;;;19.04;100.00;102045.84;5288179;28;20047;-70
2022/05/17 08:33:20;;;;;;;10.80;5.25;;;;;;;19.16;100.00;102041.56;5287673;28;20048;-70
2022/05/17 08:36:10;;;;;;;14.80;5.30;;;;;;;19.27;100.00;102040.19;5275680;28;20086;-70
2022/05/17 08:38:45;;;;;;;11.23;5.75;;;;;;;19.29;100.00;102046.28;5265292;28;20107;-70
2022/05/17 08:41:36;;;;;;;11.25;5.28;;;;;;;19.25;100.00;102047.72;5266181;28;20024;-70
2022/05/17 08:44:13;;;;;;;11.05;5.00;;;;;;;19.14;100.00;102041.75;5280025;28;20081;-69
2022/05/17 08:47:06;;;;;;;12.93;4.97;;;;;;;19.22;100.00;102038.06;5287601;27;20035;-70
2022/05/17 08:49:40;;;;;;;20.33;5.60;;;;;;;19.26;100.00;102033.91;5282169;27;20099;-70
2022/05/17 08:52:17;;;;;;;13.07;5.03;;;;;;;19.25;100.00;102040.38;5279637;28;20522;-70
2022/05/17 08:54:55;;;;;;;13.38;5.00;;;;;;;19.27;100.00;102043.75;5279193;28;20030;-70
2022/05/17 08:57:31;;;;;;;16.70;5.82;;;;;;;19.26;100.00;102039.34;5280858;28;20111;-70
2022/05/17 09:00:21;;;;;;;13.95;5.07;;;;;;;19.38;100.00;102034.25;5287353;28;20028;-70
2022/05/17 09:03:24;;;;;;;10.45;5.20;;;;;;;19.42;100.00;102032.78;5273376;28;20036;-69
2022/05/17 09:06:07;;;;;;;11.88;5.38;;;;;;;19.50;100.00;102031.81;5281491;28;20237;-70
2022/05/17 09:08:48;;;;;;;13.65;5.80;;;;;;;19.42;100.00;102032.78;5274001;28;20074;-70
2022/05/17 09:11:50;;;;;;;11.13;5.93;;;;;;;19.47;100.00;102029.50;5286705;28;20438;-70
2022/05/17 09:14:25;;;;;;;16.85;5.65;;;;;;;19.42;100.00;102030.91;5282632;28;20024;-70
2022/05/17 09:17:04;;;;;;;13.88;6.05;;;;;;;19.42;100.00;102022.75;5281960;28;20019;-69
2022/05/17 09:19:34;;;;;;;20.80;5.68;;;;;;;19.46;100.00;102022.38;5287160;28;20028;-70
2022/05/17 09:22:06;;;;;;;15.35;5.03;;;;;;;19.69;100.00;102027.63;5281538;28;20160;-70
2022/05/17 09:24:40;;;;;;;17.98;6.30;;;;;;;20.11;100.00;102026.63;5277232;28;20031;-70
2022/05/17 09:27:23;;;;;;;16.77;6.00;;;;;;;20.55;100.00;102022.69;5286215;28;20059;-70
2022/05/17 09:30:03;;;;;;;12.93;5.40;;;;;;;21.01;100.00;102016.53;5286468;28;20115;-70
2022/05/17 09:32:39;;;;;;;10.13;6.13;;;;;;;21.33;100.00;102018.47;5276050;28;20028;-70
2022/05/17 09:35:28;;;;;;;16.67;6.32;;;;;;;21.80;100.00;102016.56;5278247;28;20024;-70
2022/05/17 09:38:03;;;;;;;9.60;6.18;;;;;;;21.91;100.00;102004.16;5266547;28;20035;-70
2022/05/17 09:40:40;;;;;;;14.10;6.30;;;;;;;22.61;100.00;102012.56;5277245;28;20092;-70
2022/05/17 09:43:12;;;;;;;14.55;6.85;;;;;;;23.05;100.00;101998.03;5272065;28;20024;-70
2022/05/17 09:45:55;;;;;;;13.05;6.05;;;;;;;23.59;100.00;102001.16;5286442;28;20026;-69
2022/05/17 09:54:48;;;;;;;13.57;5.63;;;;;;;25.07;100.00;101994.56;5285907;28;20030;-70
2022/05/17 09:57:23;;;;;;;13.13;5.45;;;;;;;24.92;100.00;101993.06;5284140;28;20369;-70
2022/05/17 10:00:04;;;;;;;15.75;6.32;;;;;;;25.10;100.00;101981.19;5274532;28;20358;-70
2022/05/17 10:02:41;;;;;;;12.57;5.20;;;;;;;25.43;100.00;101988.88;5271962;28;20015;-70
2022/05/17 10:05:16;;;;;;;23.25;5.45;;;;;;;25.47;100.00;101984.59;5272153;28;20035;-70
2022/05/17 10:07:52;;;;;;;12.43;5.50;;;;;;;25.42;100.00;101978.97;5274031;28;20057;-70
2022/05/17 10:10:42;;;;;;;9.07;4.82;;;;;;;25.13;100.00;101974.41;5281252;28;20030;-70
2022/05/17 10:13:15;;;;;;;12.23;4.88;;;;;;;25.12;100.00;101967.25;5285439;28;20024;-70
2022/05/17 10:15:52;;;;;;;14.80;5.50;;;;;;;25.26;100.00;101972.28;5285396;28;20034;-70
2022/05/17 10:18:45;;;;;;;11.55;4.28;;;;;;;25.40;100.00;101969.28;5272138;28;20021;-70
2022/05/17 10:21:40;;;;;;;12.88;5.05;;;;;;;25.25;100.00;101965.13;5285509;28;20027;-70
2022/05/17 10:24:11;;;;;;;7.75;4.72;;;;;;;25.08;100.00;101960.53;5263943;28;20047;-70
2022/05/17 10:26:50;;;;;;;10.52;5.00;;;;;;;25.25;100.00;101956.03;5281753;28;20084;-70
2022/05/17 10:29:29;;;;;;;9.68;4.45;;;;;;;25.32;100.00;101959.50;5285258;27;20334;-70
2022/05/17 10:32:09;;;;;;;8.52;4.93;;;;;;;25.25;100.00;101958.75;5285617;28;20448;-70
2022/05/17 10:34:58;;;;;;;10.75;5.20;;;;;;;25.27;100.00;101951.97;5285838;28;20077;-70
2022/05/17 10:37:51;;;;;;;9.48;4.90;;;;;;;25.00;100.00;101950.69;5285438;28;20031;-70
2022/05/17 10:40:28;;;;;;;13.65;5.47;;;;;;;24.56;100.00;101941.06;5274245;28;20055;-69
2022/05/17 10:43:00;;;;;;;10.13;5.47;;;;;;;25.21;100.00;101936.47;5281973;28;20031;-69
2022/05/17 10:45:34;;;;;;;12.00;5.07;;;;;;;25.24;100.00;101935.13;5264816;28;20048;-70
2022/05/17 10:48:11;;;;;;;14.50;6.13;;;;;;;25.01;100.00;101931.28;5284411;28;20389;-70
2022/05/17 10:51:04;;;;;;;8.98;4.75;;;;;;;25.28;100.00;101926.19;5286095;28;20502;-69
2022/05/17 10:53:51;;;;;;;8.90;5.30;;;;;;;25.26;100.00;101931.09;5286120;28;20098;-70
2022/05/17 10:56:58;;;;;;;9.20;4.82;;;;;;;25.46;100.00;101922.50;5284485;28;20039;-70
2022/05/17 10:59:44;;;;;;;13.55;5.95;;;;;;;25.56;100.00;101914.47;5283678;28;20036;-70
2022/05/17 11:02:33;;;;;;;11.63;5.47;;;;;;;25.87;100.00;101912.44;5283112;28;20036;-70
2022/05/17 11:05:28;;;;;;;11.98;5.00;;;;;;;25.91;100.00;101907.28;5275542;28;20317;-70
2022/05/17 11:08:10;;;;;;;14.10;5.72;;;;;;;25.86;100.00;101905.28;5275227;28;20016;-70
2022/05/17 11:10:56;;;;;;;8.70;4.78;;;;;;;25.47;100.00;101893.94;5281737;28;20480;-70
2022/05/17 11:13:34;;;;;;;9.05;4.35;;;;;;;25.43;100.00;101886.41;5284533;28;20073;-70
2022/05/17 11:16:23;;;;;;;12.93;4.80;;;;;;;25.76;100.00;101892.13;5275953;28;20028;-70
2022/05/17 11:19:03;;;;;;;11.82;5.10;;;;;;;25.73;100.00;101884.34;5277221;28;20024;-70
2022/05/17 11:21:58;;;;;;;10.73;4.55;;;;;;;25.87;100.00;101881.38;5277293;28;20557;-70
2022/05/17 11:25:06;;;;;;;6.97;4.85;;;;;;;26.39;100.00;101878.50;5263308;28;20132;-71
2022/05/17 11:28:13;;;;;;;8.48;4.57;;;;;;;26.60;100.00;101864.91;5273432;28;20374;-70
2022/05/17 11:30:53;;;;;;;8.50;4.90;;;;;;;26.55;100.00;101852.97;5272983;28;20032;-70
2022/05/17 11:33:24;;;;;;;7.97;4.55;;;;;;;26.57;100.00;101856.31;5270912;28;20054;-70
2022/05/17 11:36:12;;;;;;;11.13;4.45;;;;;;;27.03;100.00;101859.81;5286136;28;20421;-70
2022/05/17 11:38:46;;;;;;;10.80;4.40;;;;;;;27.02;100.00;101855.41;5268057;28;20048;-70
2022/05/17 11:41:18;;;;;;;11.63;4.70;;;;;;;26.78;100.00;101857.50;5268048;28;20538;-70
2022/05/17 11:44:27;;;;;;;10.15;4.47;;;;;;;26.62;100.00;101844.56;5279420;28;20076;-71
2022/05/17 11:46:58;;;;;;;10.90;4.20;;;;;;;27.00;100.00;101852.88;5289232;28;20377;-71
2022/05/17 11:49:32;;;;;;;8.93;3.92;;;;;;;26.72;100.00;101836.50;5289248;28;20039;-70
2022/05/17 11:52:03;;;;;;;10.60;4.60;;;;;;;26.89;100.00;101845.56;5276606;28;20072;-71
2022/05/17 11:54:51;;;;;;;12.45;4.45;;;;;;;26.44;100.00;101837.38;5286944;28;20050;-71
2022/05/17 11:57:23;;;;;;;7.78;4.32;;;;;;;26.22;100.00;101831.72;5272089;28;20118;-70